sensor_id;sensor_type;location;lat;lon;timestamp;temperature;humidity
52016;DHT22;38032;53.326;6.472;2023-04-03T00:00:21;2.80;99.90
52016;DHT22;38032;53.326;6.472;2023-04-03T00:02:47;2.80;99.90
52016;DHT22;38032;53.326;6.472;2023-04-03T00:05:13;2.80;99.90
52016;DHT22;38032;53.326;6.472;2023-04-03T00:07:39;2.80;99.90
52016;DHT22;38032;53.326;6.472;2023-04-03T00:10:05;2.70;99.90
52016;DHT22;38032;53.326;6.472;2023-04-03T00:12:31;2.70;99.90
52016;DHT22;38032;53.326;6.472;2023-04-03T00:14:57;2.70;99.90
52016;DHT22;38032;53.326;6.472;2023-04-03T00:17:23;2.70;99.90
52016;DHT22;38032;53.326;6.472;2023-04-03T00:19:49;2.70;99.90
52016;DHT22;38032;53.326;6.472;2023-04-03T00:22:15;2.60;99.90
52016;DHT22;38032;53.326;6.472;2023-04-03T00:24:41;2.60;99.90
52016;DHT22;38032;53.326;6.472;2023-04-03T00:27:07;2.60;99.90
52016;DHT22;38032;53.326;6.472;2023-04-03T00:29:33;2.60;99.90
52016;DHT22;38032;53.326;6.472;2023-04-03T00:31:59;2.50;99.90
52016;DHT22;38032;53.326;6.472;2023-04-03T00:34:25;2.50;99.90
52016;DHT22;38032;53.326;6.472;2023-04-03T00:36:51;2.50;99.90
52016;DHT22;38032;53.326;6.472;2023-04-03T00:39:17;2.40;99.90
52016;DHT22;38032;53.326;6.472;2023-04-03T00:41:42;2.40;99.90
52016;DHT22;38032;53.326;6.472;2023-04-03T00:47:02;2.40;99.90
52016;DHT22;38032;53.326;6.472;2023-04-03T00:49:29;2.40;99.90
52016;DHT22;38032;53.326;6.472;2023-04-03T00:51:56;2.40;99.90
52016;DHT22;38032;53.326;6.472;2023-04-03T00:54:23;2.40;99.90
52016;DHT22;38032;53.326;6.472;2023-04-03T00:56:51;2.40;99.90
52016;DHT22;38032;53.326;6.472;2023-04-03T00:59:22;2.30;99.90
52016;DHT22;38032;53.326;6.472;2023-04-03T01:01:51;2.30;99.90
52016;DHT22;38032;53.326;6.472;2023-04-03T01:04:34;2.30;99.90
52016;DHT22;38032;53.326;6.472;2023-04-03T01:07:07;2.30;99.90
52016;DHT22;38032;53.326;6.472;2023-04-03T01:09:34;2.30;99.90
52016;DHT22;38032;53.326;6.472;2023-04-03T01:12:17;2.30;99.90
52016;DHT22;38032;53.326;6.472;2023-04-03T01:14:44;2.20;99.90
52016;DHT22;38032;53.326;6.472;2023-04-03T01:17:29;2.20;99.90
52016;DHT22;38032;53.326;6.472;2023-04-03T01:23:11;2.10;99.90
52016;DHT22;38032;53.326;6.472;2023-04-03T01:28:10;2.10;99.90
52016;DHT22;38032;53.326;6.472;2023-04-03T01:30:48;2.10;99.90
52016;DHT22;38032;53.326;6.472;2023-04-03T01:33:16;2.10;99.90
52016;DHT22;38032;53.326;6.472;2023-04-03T01:35:42;2.00;99.90
52016;DHT22;38032;53.326;6.472;2023-04-03T01:38:07;2.00;99.90
52016;DHT22;38032;53.326;6.472;2023-04-03T01:40:33;2.00;99.90
52016;DHT22;38032;53.326;6.472;2023-04-03T01:43:00;2.00;99.90
52016;DHT22;38032;53.326;6.472;2023-04-03T01:45:25;2.00;99.90
52016;DHT22;38032;53.326;6.472;2023-04-03T01:47:51;2.00;99.90
52016;DHT22;38032;53.326;6.472;2023-04-03T01:50:17;2.00;99.90
52016;DHT22;38032;53.326;6.472;2023-04-03T01:52:43;2.00;99.90
52016;DHT22;38032;53.326;6.472;2023-04-03T01:55:09;2.00;99.90
52016;DHT22;38032;53.326;6.472;2023-04-03T01:57:35;1.90;99.90
52016;DHT22;38032;53.326;6.472;2023-04-03T02:00:01;1.90;99.90
52016;DHT22;38032;53.326;6.472;2023-04-03T02:02:27;2.00;99.90
52016;DHT22;38032;53.326;6.472;2023-04-03T02:04:53;1.90;99.90
52016;DHT22;38032;53.326;6.472;2023-04-03T02:07:20;1.90;99.90
52016;DHT22;38032;53.326;6.472;2023-04-03T02:09:46;1.90;99.90
52016;DHT22;38032;53.326;6.472;2023-04-03T02:12:12;1.90;99.90
52016;DHT22;38032;53.326;6.472;2023-04-03T02:14:37;1.80;99.90
52016;DHT22;38032;53.326;6.472;2023-04-03T02:17:03;1.80;99.90
52016;DHT22;38032;53.326;6.472;2023-04-03T02:19:34;1.80;99.90
52016;DHT22;38032;53.326;6.472;2023-04-03T02:22:02;1.80;99.90
52016;DHT22;38032;53.326;6.472;2023-04-03T02:24:28;1.80;99.90
52016;DHT22;38032;53.326;6.472;2023-04-03T02:26:54;1.80;99.90
52016;DHT22;38032;53.326;6.472;2023-04-03T02:29:20;1.80;99.90
52016;DHT22;38032;53.326;6.472;2023-04-03T02:31:46;1.80;99.90
52016;DHT22;38032;53.326;6.472;2023-04-03T02:34:12;1.80;99.90
52016;DHT22;38032;53.326;6.472;2023-04-03T02:36:38;1.80;99.90
52016;DHT22;38032;53.326;6.472;2023-04-03T02:39:04;1.80;99.90
52016;DHT22;38032;53.326;6.472;2023-04-03T02:41:29;1.80;99.90
52016;DHT22;38032;53.326;6.472;2023-04-03T02:44:01;1.80;99.90
52016;DHT22;38032;53.326;6.472;2023-04-03T02:46:27;1.80;99.90
52016;DHT22;38032;53.326;6.472;2023-04-03T02:48:53;1.80;99.90
52016;DHT22;38032;53.326;6.472;2023-04-03T02:51:19;1.80;99.90
52016;DHT22;38032;53.326;6.472;2023-04-03T02:53:45;1.90;99.90
52016;DHT22;38032;53.326;6.472;2023-04-03T02:56:11;1.90;99.90
52016;DHT22;38032;53.326;6.472;2023-04-03T02:58:37;1.90;99.90
52016;DHT22;38032;53.326;6.472;2023-04-03T03:01:03;1.80;99.90
52016;DHT22;38032;53.326;6.472;2023-04-03T03:03:29;1.80;99.90
52016;DHT22;38032;53.326;6.472;2023-04-03T03:06:03;1.80;99.90
52016;DHT22;38032;53.326;6.472;2023-04-03T03:08:29;1.80;99.90
52016;DHT22;38032;53.326;6.472;2023-04-03T03:10:55;1.80;99.90
52016;DHT22;38032;53.326;6.472;2023-04-03T03:13:21;1.80;99.90
52016;DHT22;38032;53.326;6.472;2023-04-03T03:15:47;1.70;99.90
52016;DHT22;38032;53.326;6.472;2023-04-03T03:18:13;1.70;99.90
52016;DHT22;38032;53.326;6.472;2023-04-03T03:20:39;1.70;99.90
52016;DHT22;38032;53.326;6.472;2023-04-03T03:23:05;1.60;99.90
52016;DHT22;38032;53.326;6.472;2023-04-03T03:25:31;1.50;99.90
52016;DHT22;38032;53.326;6.472;2023-04-03T03:27:57;1.50;99.90
52016;DHT22;38032;53.326;6.472;2023-04-03T03:30:23;1.30;99.90
52016;DHT22;38032;53.326;6.472;2023-04-03T03:32:49;1.30;99.90
52016;DHT22;38032;53.326;6.472;2023-04-03T03:35:15;1.10;99.90
52016;DHT22;38032;53.326;6.472;2023-04-03T03:37:41;1.10;99.90
52016;DHT22;38032;53.326;6.472;2023-04-03T03:40:07;0.90;99.90
52016;DHT22;38032;53.326;6.472;2023-04-03T03:42:33;0.90;99.90
52016;DHT22;38032;53.326;6.472;2023-04-03T03:44:59;0.90;99.90
52016;DHT22;38032;53.326;6.472;2023-04-03T03:47:25;0.90;99.90
52016;DHT22;38032;53.326;6.472;2023-04-03T03:49:51;0.90;99.90
52016;DHT22;38032;53.326;6.472;2023-04-03T03:52:16;0.90;99.90
52016;DHT22;38032;53.326;6.472;2023-04-03T03:54:42;1.00;99.90
52016;DHT22;38032;53.326;6.472;2023-04-03T03:57:08;0.90;99.90
52016;DHT22;38032;53.326;6.472;2023-04-03T03:59:34;0.80;99.90
52016;DHT22;38032;53.326;6.472;2023-04-03T04:02:00;0.80;99.90
52016;DHT22;38032;53.326;6.472;2023-04-03T04:06:52;0.60;99.90
52016;DHT22;38032;53.326;6.472;2023-04-03T04:09:18;0.60;99.90
52016;DHT22;38032;53.326;6.472;2023-04-03T04:11:44;0.60;99.90
52016;DHT22;38032;53.326;6.472;2023-04-03T04:14:10;0.60;99.90
52016;DHT22;38032;53.326;6.472;2023-04-03T04:16:38;0.60;99.90
52016;DHT22;38032;53.326;6.472;2023-04-03T04:19:03;0.60;99.90
52016;DHT22;38032;53.326;6.472;2023-04-03T04:21:29;0.60;99.90
52016;DHT22;38032;53.326;6.472;2023-04-03T04:23:55;0.50;99.90
52016;DHT22;38032;53.326;6.472;2023-04-03T04:26:21;0.50;99.90
52016;DHT22;38032;53.326;6.472;2023-04-03T04:28:47;0.50;99.90
52016;DHT22;38032;53.326;6.472;2023-04-03T04:31:13;0.40;99.90
52016;DHT22;38032;53.326;6.472;2023-04-03T04:33:39;0.40;99.90
52016;DHT22;38032;53.326;6.472;2023-04-03T04:36:05;0.40;99.90
52016;DHT22;38032;53.326;6.472;2023-04-03T04:38:31;0.40;99.90
52016;DHT22;38032;53.326;6.472;2023-04-03T04:40:56;0.40;99.90
52016;DHT22;38032;53.326;6.472;2023-04-03T04:43:22;0.40;99.90
52016;DHT22;38032;53.326;6.472;2023-04-03T04:45:48;0.40;99.90
52016;DHT22;38032;53.326;6.472;2023-04-03T04:48:14;0.40;99.90
52016;DHT22;38032;53.326;6.472;2023-04-03T04:50:40;0.40;99.90
52016;DHT22;38032;53.326;6.472;2023-04-03T04:53:06;0.30;99.90
52016;DHT22;38032;53.326;6.472;2023-04-03T04:55:32;0.40;99.90
52016;DHT22;38032;53.326;6.472;2023-04-03T04:57:58;0.40;99.90
52016;DHT22;38032;53.326;6.472;2023-04-03T05:00:23;0.40;99.90
52016;DHT22;38032;53.326;6.472;2023-04-03T05:02:50;0.40;99.90
52016;DHT22;38032;53.326;6.472;2023-04-03T05:05:15;0.40;99.90
52016;DHT22;38032;53.326;6.472;2023-04-03T05:07:41;0.30;99.90
52016;DHT22;38032;53.326;6.472;2023-04-03T05:10:08;0.40;99.90
52016;DHT22;38032;53.326;6.472;2023-04-03T05:12:34;0.40;99.90
52016;DHT22;38032;53.326;6.472;2023-04-03T05:15:00;0.40;99.90
52016;DHT22;38032;53.326;6.472;2023-04-03T05:17:26;0.40;99.90
52016;DHT22;38032;53.326;6.472;2023-04-03T05:19:52;0.40;99.90
52016;DHT22;38032;53.326;6.472;2023-04-03T05:22:18;0.40;99.90
52016;DHT22;38032;53.326;6.472;2023-04-03T05:24:43;0.40;99.90
52016;DHT22;38032;53.326;6.472;2023-04-03T05:27:09;0.60;99.90
52016;DHT22;38032;53.326;6.472;2023-04-03T05:29:36;0.90;99.90
52016;DHT22;38032;53.326;6.472;2023-04-03T05:32:02;1.10;99.90
52016;DHT22;38032;53.326;6.472;2023-04-03T05:34:28;1.40;99.90
52016;DHT22;38032;53.326;6.472;2023-04-03T05:36:54;1.90;99.90
52016;DHT22;38032;53.326;6.472;2023-04-03T05:39:20;2.30;99.90
52016;DHT22;38032;53.326;6.472;2023-04-03T05:41:45;2.70;99.90
52016;DHT22;38032;53.326;6.472;2023-04-03T05:44:11;2.90;99.90
52016;DHT22;38032;53.326;6.472;2023-04-03T05:46:37;3.10;99.90
52016;DHT22;38032;53.326;6.472;2023-04-03T05:49:03;3.00;99.90
52016;DHT22;38032;53.326;6.472;2023-04-03T05:51:33;2.90;99.90
52016;DHT22;38032;53.326;6.472;2023-04-03T05:54:09;2.80;99.90
52016;DHT22;38032;53.326;6.472;2023-04-03T05:56:37;2.80;99.90
52016;DHT22;38032;53.326;6.472;2023-04-03T05:59:03;2.80;99.90
52016;DHT22;38032;53.326;6.472;2023-04-03T06:01:29;2.80;99.90
52016;DHT22;38032;53.326;6.472;2023-04-03T06:03:55;2.80;99.90
52016;DHT22;38032;53.326;6.472;2023-04-03T06:06:21;2.80;99.90
52016;DHT22;38032;53.326;6.472;2023-04-03T06:08:47;2.90;99.90
52016;DHT22;38032;53.326;6.472;2023-04-03T06:11:13;2.90;99.90
52016;DHT22;38032;53.326;6.472;2023-04-03T06:13:40;2.90;99.90
52016;DHT22;38032;53.326;6.472;2023-04-03T06:16:06;2.90;99.90
52016;DHT22;38032;53.326;6.472;2023-04-03T06:18:32;3.00;99.90
52016;DHT22;38032;53.326;6.472;2023-04-03T06:20:58;3.00;99.90
52016;DHT22;38032;53.326;6.472;2023-04-03T06:23:24;3.10;99.90
52016;DHT22;38032;53.326;6.472;2023-04-03T06:25:50;3.40;99.90
52016;DHT22;38032;53.326;6.472;2023-04-03T06:28:15;3.80;99.90
52016;DHT22;38032;53.326;6.472;2023-04-03T06:30:41;3.90;99.90
52016;DHT22;38032;53.326;6.472;2023-04-03T06:33:07;4.00;99.90
52016;DHT22;38032;53.326;6.472;2023-04-03T06:35:33;4.00;99.90
52016;DHT22;38032;53.326;6.472;2023-04-03T06:38:00;4.00;99.90
52016;DHT22;38032;53.326;6.472;2023-04-03T06:40:26;4.10;99.90
52016;DHT22;38032;53.326;6.472;2023-04-03T06:42:52;4.20;99.90
52016;DHT22;38032;53.326;6.472;2023-04-03T06:45:18;4.50;99.90
52016;DHT22;38032;53.326;6.472;2023-04-03T06:47:44;5.30;99.90
52016;DHT22;38032;53.326;6.472;2023-04-03T06:50:11;6.40;99.90
52016;DHT22;38032;53.326;6.472;2023-04-03T06:52:40;7.50;99.90
52016;DHT22;38032;53.326;6.472;2023-04-03T06:55:06;8.40;99.90
52016;DHT22;38032;53.326;6.472;2023-04-03T06:57:32;8.80;99.90
52016;DHT22;38032;53.326;6.472;2023-04-03T06:59:58;9.00;99.90
52016;DHT22;38032;53.326;6.472;2023-04-03T07:02:25;9.60;99.90
52016;DHT22;38032;53.326;6.472;2023-04-03T07:04:51;10.50;99.00
52016;DHT22;38032;53.326;6.472;2023-04-03T07:07:17;11.10;97.30
52016;DHT22;38032;53.326;6.472;2023-04-03T07:09:43;11.70;95.00
52016;DHT22;38032;53.326;6.472;2023-04-03T07:12:09;12.30;92.30
52016;DHT22;38032;53.326;6.472;2023-04-03T07:14:35;13.00;89.00
52016;DHT22;38032;53.326;6.472;2023-04-03T07:17:01;13.90;82.30
52016;DHT22;38032;53.326;6.472;2023-04-03T07:19:27;14.10;78.20
52016;DHT22;38032;53.326;6.472;2023-04-03T07:21:53;14.10;76.00
52016;DHT22;38032;53.326;6.472;2023-04-03T07:24:20;13.80;74.70
52016;DHT22;38032;53.326;6.472;2023-04-03T07:26:50;13.70;73.90
52016;DHT22;38032;53.326;6.472;2023-04-03T07:29:16;13.20;72.80
52016;DHT22;38032;53.326;6.472;2023-04-03T07:31:42;12.50;74.60
52016;DHT22;38032;53.326;6.472;2023-04-03T07:36:38;11.60;99.00
52016;DHT22;38032;53.326;6.472;2023-04-03T07:39:04;11.60;96.00
52016;DHT22;38032;53.326;6.472;2023-04-03T07:41:29;12.00;93.10
52016;DHT22;38032;53.326;6.472;2023-04-03T07:43:56;12.60;76.40
52016;DHT22;38032;53.326;6.472;2023-04-03T07:46:22;13.50;71.60
52016;DHT22;38032;53.326;6.472;2023-04-03T07:48:49;14.30;70.00
52016;DHT22;38032;53.326;6.472;2023-04-03T07:51:15;14.20;68.80
52016;DHT22;38032;53.326;6.472;2023-04-03T07:56:10;13.20;95.30
52016;DHT22;38032;53.326;6.472;2023-04-03T07:58:36;12.70;96.50
52016;DHT22;38032;53.326;6.472;2023-04-03T08:01:02;12.60;97.20
52016;DHT22;38032;53.326;6.472;2023-04-03T08:03:28;12.50;97.30
52016;DHT22;38032;53.326;6.472;2023-04-03T08:05:54;12.90;97.20
52016;DHT22;38032;53.326;6.472;2023-04-03T08:08:22;13.30;96.70
52016;DHT22;38032;53.326;6.472;2023-04-03T08:10:51;13.30;68.00
52016;DHT22;38032;53.326;6.472;2023-04-03T08:13:17;13.60;68.80
52016;DHT22;38032;53.326;6.472;2023-04-03T08:15:43;13.60;68.70
52016;DHT22;38032;53.326;6.472;2023-04-03T08:18:10;13.60;67.90
52016;DHT22;38032;53.326;6.472;2023-04-03T08:20:38;14.00;67.10
52016;DHT22;38032;53.326;6.472;2023-04-03T08:23:06;14.60;64.70
52016;DHT22;38032;53.326;6.472;2023-04-03T08:25:32;15.60;62.90
52016;DHT22;38032;53.326;6.472;2023-04-03T08:27:58;16.60;59.20
52016;DHT22;38032;53.326;6.472;2023-04-03T08:30:24;17.00;57.50
52016;DHT22;38032;53.326;6.472;2023-04-03T08:32:50;17.00;57.30
52016;DHT22;38032;53.326;6.472;2023-04-03T08:35:16;16.90;56.60
52016;DHT22;38032;53.326;6.472;2023-04-03T08:37:42;16.60;57.00
52016;DHT22;38032;53.326;6.472;2023-04-03T08:40:14;16.70;57.60
52016;DHT22;38032;53.326;6.472;2023-04-03T08:43:03;17.00;56.80
52016;DHT22;38032;53.326;6.472;2023-04-03T08:45:45;17.10;56.50
52016;DHT22;38032;53.326;6.472;2023-04-03T08:48:24;17.10;57.70
52016;DHT22;38032;53.326;6.472;2023-04-03T08:50:54;17.00;56.40
52016;DHT22;38032;53.326;6.472;2023-04-03T08:53:25;17.00;56.80
52016;DHT22;38032;53.326;6.472;2023-04-03T08:55:54;16.90;57.40
52016;DHT22;38032;53.326;6.472;2023-04-03T08:58:25;16.90;57.60
52016;DHT22;38032;53.326;6.472;2023-04-03T09:01:01;17.10;58.10
52016;DHT22;38032;53.326;6.472;2023-04-03T09:03:31;17.10;57.20
52016;DHT22;38032;53.326;6.472;2023-04-03T09:06:11;17.20;57.80
52016;DHT22;38032;53.326;6.472;2023-04-03T09:08:41;17.40;57.30
52016;DHT22;38032;53.326;6.472;2023-04-03T09:11:21;17.50;56.30
52016;DHT22;38032;53.326;6.472;2023-04-03T09:16:27;17.60;55.00
52016;DHT22;38032;53.326;6.472;2023-04-03T09:19:06;18.00;53.40
52016;DHT22;38032;53.326;6.472;2023-04-03T09:21:37;18.60;53.30
52016;DHT22;38032;53.326;6.472;2023-04-03T09:24:05;19.20;51.60
52016;DHT22;38032;53.326;6.472;2023-04-03T09:26:39;20.20;51.00
52016;DHT22;38032;53.326;6.472;2023-04-03T09:29:07;19.90;48.90
52016;DHT22;38032;53.326;6.472;2023-04-03T09:31:38;21.60;48.50
52016;DHT22;38032;53.326;6.472;2023-04-03T09:36:45;22.90;46.40
52016;DHT22;38032;53.326;6.472;2023-04-03T09:41:41;24.10;44.90
52016;DHT22;38032;53.326;6.472;2023-04-03T09:44:22;24.70;43.90
52016;DHT22;38032;53.326;6.472;2023-04-03T09:46:49;25.00;43.40
52016;DHT22;38032;53.326;6.472;2023-04-03T09:49:15;25.50;43.00
52016;DHT22;38032;53.326;6.472;2023-04-03T09:51:41;25.90;42.80
52016;DHT22;38032;53.326;6.472;2023-04-03T09:54:35;26.20;42.30
52016;DHT22;38032;53.326;6.472;2023-04-03T09:57:13;26.60;42.40
52016;DHT22;38032;53.326;6.472;2023-04-03T09:59:45;26.80;40.80
52016;DHT22;38032;53.326;6.472;2023-04-03T10:04:41;27.10;40.60
52016;DHT22;38032;53.326;6.472;2023-04-03T10:07:31;27.30;40.00
52016;DHT22;38032;53.326;6.472;2023-04-03T10:10:00;27.50;39.80
52016;DHT22;38032;53.326;6.472;2023-04-03T10:12:27;27.90;39.90
52016;DHT22;38032;53.326;6.472;2023-04-03T10:14:54;27.90;38.30
52016;DHT22;38032;53.326;6.472;2023-04-03T10:17:32;27.80;38.40
52016;DHT22;38032;53.326;6.472;2023-04-03T10:20:27;27.60;38.10
52016;DHT22;38032;53.326;6.472;2023-04-03T10:31:10;26.40;36.70
52016;DHT22;38032;53.326;6.472;2023-04-03T10:33:43;26.10;37.20
52016;DHT22;38032;53.326;6.472;2023-04-03T10:36:25;26.00;37.40
52016;DHT22;38032;53.326;6.472;2023-04-03T10:44:34;25.20;37.50
52016;DHT22;38032;53.326;6.472;2023-04-03T10:47:19;25.10;37.70
52016;DHT22;38032;53.326;6.472;2023-04-03T10:49:56;24.60;37.30
52016;DHT22;38032;53.326;6.472;2023-04-03T10:52:40;24.10;37.50
52016;DHT22;38032;53.326;6.472;2023-04-03T10:55:28;23.80;37.00
52016;DHT22;38032;53.326;6.472;2023-04-03T10:57:58;23.40;37.60
52016;DHT22;38032;53.326;6.472;2023-04-03T11:00:42;23.20;38.60
52016;DHT22;38032;53.326;6.472;2023-04-03T11:03:30;23.20;37.90
52016;DHT22;38032;53.326;6.472;2023-04-03T11:06:01;22.70;36.70
52016;DHT22;38032;53.326;6.472;2023-04-03T11:08:42;22.10;37.90
52016;DHT22;38032;53.326;6.472;2023-04-03T11:11:15;21.70;38.50
52016;DHT22;38032;53.326;6.472;2023-04-03T11:16:17;21.40;39.00
52016;DHT22;38032;53.326;6.472;2023-04-03T11:18:51;21.20;38.50
52016;DHT22;38032;53.326;6.472;2023-04-03T11:21:39;20.80;38.20
52016;DHT22;38032;53.326;6.472;2023-04-03T11:24:16;20.60;51.40
52016;DHT22;38032;53.326;6.472;2023-04-03T11:26:43;20.30;40.30
52016;DHT22;38032;53.326;6.472;2023-04-03T11:29:17;20.10;40.80
52016;DHT22;38032;53.326;6.472;2023-04-03T11:32:27;19.80;41.30
52016;DHT22;38032;53.326;6.472;2023-04-03T11:34:59;19.40;42.10
52016;DHT22;38032;53.326;6.472;2023-04-03T11:37:34;19.10;41.60
52016;DHT22;38032;53.326;6.472;2023-04-03T11:40:18;19.00;42.00
52016;DHT22;38032;53.326;6.472;2023-04-03T11:42:47;18.80;40.90
52016;DHT22;38032;53.326;6.472;2023-04-03T11:47:50;18.20;41.90
52016;DHT22;38032;53.326;6.472;2023-04-03T11:50:39;18.00;41.20
52016;DHT22;38032;53.326;6.472;2023-04-03T12:08:45;16.20;42.40
52016;DHT22;38032;53.326;6.472;2023-04-03T12:13:40;15.60;43.10
52016;DHT22;38032;53.326;6.472;2023-04-03T12:19:32;15.10;43.70
52016;DHT22;38032;53.326;6.472;2023-04-03T12:24:27;14.40;43.60
52016;DHT22;38032;53.326;6.472;2023-04-03T12:34:46;13.90;44.90
52016;DHT22;38032;53.326;6.472;2023-04-03T12:37:39;13.80;45.00
52016;DHT22;38032;53.326;6.472;2023-04-03T12:43:02;13.70;45.50
52016;DHT22;38032;53.326;6.472;2023-04-03T12:45:42;13.70;46.40
52016;DHT22;38032;53.326;6.472;2023-04-03T12:48:15;13.40;47.30
52016;DHT22;38032;53.326;6.472;2023-04-03T12:50:44;13.40;48.10
52016;DHT22;38032;53.326;6.472;2023-04-03T12:53:16;13.10;48.10
52016;DHT22;38032;53.326;6.472;2023-04-03T12:55:43;12.80;48.00
52016;DHT22;38032;53.326;6.472;2023-04-03T12:58:17;12.50;48.50
52016;DHT22;38032;53.326;6.472;2023-04-03T13:00:46;12.40;48.40
52016;DHT22;38032;53.326;6.472;2023-04-03T13:03:25;12.40;48.80
52016;DHT22;38032;53.326;6.472;2023-04-03T13:05:56;12.50;48.40
52016;DHT22;38032;53.326;6.472;2023-04-03T13:08:23;12.60;48.30
52016;DHT22;38032;53.326;6.472;2023-04-03T13:10:54;12.40;50.10
52016;DHT22;38032;53.326;6.472;2023-04-03T13:13:21;12.00;49.70
52016;DHT22;38032;53.326;6.472;2023-04-03T13:18:34;11.50;50.40
52016;DHT22;38032;53.326;6.472;2023-04-03T13:21:04;11.40;50.40
52016;DHT22;38032;53.326;6.472;2023-04-03T13:23:32;11.40;51.40
52016;DHT22;38032;53.326;6.472;2023-04-03T13:26:00;11.40;56.40
52016;DHT22;38032;53.326;6.472;2023-04-03T13:28:30;11.40;51.60
52016;DHT22;38032;53.326;6.472;2023-04-03T13:33:52;11.30;55.40
52016;DHT22;38032;53.326;6.472;2023-04-03T13:38:59;10.90;55.10
52016;DHT22;38032;53.326;6.472;2023-04-03T13:41:37;10.70;56.60
52016;DHT22;38032;53.326;6.472;2023-04-03T13:44:26;10.50;56.20
52016;DHT22;38032;53.326;6.472;2023-04-03T13:46:56;10.40;56.70
52016;DHT22;38032;53.326;6.472;2023-04-03T13:51:59;10.20;56.50
52016;DHT22;38032;53.326;6.472;2023-04-03T13:54:32;10.10;57.10
52016;DHT22;38032;53.326;6.472;2023-04-03T13:57:00;10.00;56.80
52016;DHT22;38032;53.326;6.472;2023-04-03T13:59:31;9.90;56.40
52016;DHT22;38032;53.326;6.472;2023-04-03T14:04:32;9.80;58.90
52016;DHT22;38032;53.326;6.472;2023-04-03T14:06:58;9.70;58.20
52016;DHT22;38032;53.326;6.472;2023-04-03T14:09:26;9.70;59.10
52016;DHT22;38032;53.326;6.472;2023-04-03T14:11:59;9.70;59.20
52016;DHT22;38032;53.326;6.472;2023-04-03T14:14:30;9.70;59.10
52016;DHT22;38032;53.326;6.472;2023-04-03T14:16:59;9.70;60.30
52016;DHT22;38032;53.326;6.472;2023-04-03T14:19:28;9.80;60.90
52016;DHT22;38032;53.326;6.472;2023-04-03T14:21:56;9.70;59.70
52016;DHT22;38032;53.326;6.472;2023-04-03T14:24:23;9.70;60.70
52016;DHT22;38032;53.326;6.472;2023-04-03T14:26:51;9.70;59.90
52016;DHT22;38032;53.326;6.472;2023-04-03T14:29:18;9.70;61.20
52016;DHT22;38032;53.326;6.472;2023-04-03T14:31:46;9.70;62.00
52016;DHT22;38032;53.326;6.472;2023-04-03T14:34:13;9.60;62.20
52016;DHT22;38032;53.326;6.472;2023-04-03T14:36:41;9.50;62.40
52016;DHT22;38032;53.326;6.472;2023-04-03T14:39:10;9.50;62.90
52016;DHT22;38032;53.326;6.472;2023-04-03T14:41:36;9.50;62.50
52016;DHT22;38032;53.326;6.472;2023-04-03T14:44:03;9.50;62.50
52016;DHT22;38032;53.326;6.472;2023-04-03T14:46:32;9.50;62.80
52016;DHT22;38032;53.326;6.472;2023-04-03T14:48:58;9.40;62.20
52016;DHT22;38032;53.326;6.472;2023-04-03T14:51:25;9.40;61.90
52016;DHT22;38032;53.326;6.472;2023-04-03T14:53:52;9.40;62.00
52016;DHT22;38032;53.326;6.472;2023-04-03T14:56:23;9.30;61.80
52016;DHT22;38032;53.326;6.472;2023-04-03T14:58:56;9.30;61.50
52016;DHT22;38032;53.326;6.472;2023-04-03T15:01:23;9.30;61.60
52016;DHT22;38032;53.326;6.472;2023-04-03T15:03:49;9.30;60.70
52016;DHT22;38032;53.326;6.472;2023-04-03T15:06:15;9.30;61.60
52016;DHT22;38032;53.326;6.472;2023-04-03T15:08:42;9.20;61.50
52016;DHT22;38032;53.326;6.472;2023-04-03T15:11:10;9.20;60.80
52016;DHT22;38032;53.326;6.472;2023-04-03T15:13:37;9.00;60.60
52016;DHT22;38032;53.326;6.472;2023-04-03T15:16:04;9.00;60.20
52016;DHT22;38032;53.326;6.472;2023-04-03T15:18:35;8.90;60.60
52016;DHT22;38032;53.326;6.472;2023-04-03T15:21:03;8.90;60.60
52016;DHT22;38032;53.326;6.472;2023-04-03T15:23:29;8.80;60.50
52016;DHT22;38032;53.326;6.472;2023-04-03T15:25:56;8.70;61.10
52016;DHT22;38032;53.326;6.472;2023-04-03T15:28:35;8.60;62.60
52016;DHT22;38032;53.326;6.472;2023-04-03T15:31:02;8.60;62.30
52016;DHT22;38032;53.326;6.472;2023-04-03T15:33:28;8.50;62.80
52016;DHT22;38032;53.326;6.472;2023-04-03T15:35:54;8.50;62.00
52016;DHT22;38032;53.326;6.472;2023-04-03T15:38:20;8.40;62.50
52016;DHT22;38032;53.326;6.472;2023-04-03T15:40:46;8.30;63.10
52016;DHT22;38032;53.326;6.472;2023-04-03T15:43:13;8.20;63.10
52016;DHT22;38032;53.326;6.472;2023-04-03T15:45:40;8.20;64.50
52016;DHT22;38032;53.326;6.472;2023-04-03T15:48:06;8.20;64.70
52016;DHT22;38032;53.326;6.472;2023-04-03T15:50:33;8.10;64.50
52016;DHT22;38032;53.326;6.472;2023-04-03T15:52:59;8.10;65.60
52016;DHT22;38032;53.326;6.472;2023-04-03T15:55:28;8.10;67.20
52016;DHT22;38032;53.326;6.472;2023-04-03T15:57:55;8.10;67.00
52016;DHT22;38032;53.326;6.472;2023-04-03T16:00:22;8.00;66.80
52016;DHT22;38032;53.326;6.472;2023-04-03T16:02:51;8.00;67.40
52016;DHT22;38032;53.326;6.472;2023-04-03T16:05:18;8.00;66.90
52016;DHT22;38032;53.326;6.472;2023-04-03T16:07:45;8.00;66.60
52016;DHT22;38032;53.326;6.472;2023-04-03T16:10:14;8.00;76.40
52016;DHT22;38032;53.326;6.472;2023-04-03T16:12:41;8.00;88.70
52016;DHT22;38032;53.326;6.472;2023-04-03T16:15:08;8.00;87.20
52016;DHT22;38032;53.326;6.472;2023-04-03T16:17:36;8.00;87.70
52016;DHT22;38032;53.326;6.472;2023-04-03T16:20:04;7.90;86.80
52016;DHT22;38032;53.326;6.472;2023-04-03T16:22:31;7.90;86.70
52016;DHT22;38032;53.326;6.472;2023-04-03T16:24:57;7.80;86.40
52016;DHT22;38032;53.326;6.472;2023-04-03T16:27:23;7.70;86.10
52016;DHT22;38032;53.326;6.472;2023-04-03T16:29:54;7.70;70.40
52016;DHT22;38032;53.326;6.472;2023-04-03T16:32:21;7.70;75.30
52016;DHT22;38032;53.326;6.472;2023-04-03T16:34:48;7.60;81.60
52016;DHT22;38032;53.326;6.472;2023-04-03T16:37:14;7.60;85.00
52016;DHT22;38032;53.326;6.472;2023-04-03T16:39:40;7.30;89.40
52016;DHT22;38032;53.326;6.472;2023-04-03T16:42:06;7.30;89.60
52016;DHT22;38032;53.326;6.472;2023-04-03T16:44:33;7.30;74.30
52016;DHT22;38032;53.326;6.472;2023-04-03T16:46:59;7.20;73.40
52016;DHT22;38032;53.326;6.472;2023-04-03T16:49:25;7.00;73.60
52016;DHT22;38032;53.326;6.472;2023-04-03T16:51:55;7.10;81.30
52016;DHT22;38032;53.326;6.472;2023-04-03T16:54:21;7.00;91.20
52016;DHT22;38032;53.326;6.472;2023-04-03T16:56:47;7.10;91.50
52016;DHT22;38032;53.326;6.472;2023-04-03T16:59:13;7.00;91.90
52016;DHT22;38032;53.326;6.472;2023-04-03T17:01:39;7.00;92.20
52016;DHT22;38032;53.326;6.472;2023-04-03T17:04:05;7.00;92.70
52016;DHT22;38032;53.326;6.472;2023-04-03T17:06:31;6.90;93.30
52016;DHT22;38032;53.326;6.472;2023-04-03T17:08:57;6.80;93.70
52016;DHT22;38032;53.326;6.472;2023-04-03T17:11:23;6.70;94.60
52016;DHT22;38032;53.326;6.472;2023-04-03T17:13:51;6.70;86.30
52016;DHT22;38032;53.326;6.472;2023-04-03T17:16:17;6.60;85.20
52016;DHT22;38032;53.326;6.472;2023-04-03T17:18:43;6.40;87.20
52016;DHT22;38032;53.326;6.472;2023-04-03T17:21:11;6.50;94.70